createdAt,value
2017-09-09T00:00:45.499Z,14.40
2017-09-09T00:03:16.553Z,14.60
2017-09-09T00:05:46.906Z,14.60
2017-09-09T00:08:18.406Z,14.60
2017-09-09T00:10:48.823Z,14.60
2017-09-09T00:13:19.184Z,14.50
2017-09-09T00:15:49.702Z,14.40
2017-09-09T00:18:21.790Z,14.40
2017-09-09T00:20:52.144Z,14.40
2017-09-09T00:23:22.543Z,14.40
2017-09-09T00:25:52.805Z,14.30
2017-09-09T00:28:23.459Z,14.30
2017-09-09T00:30:54.789Z,14.10
2017-09-09T00:33:25.532Z,14.10
2017-09-09T00:35:57.131Z,13.90
2017-09-09T00:38:28.253Z,13.80
2017-09-09T00:40:58.958Z,13.80
2017-09-09T00:43:29.703Z,13.70
2017-09-09T00:46:00.140Z,13.70
2017-09-09T00:48:31.307Z,13.60
2017-09-09T00:51:01.854Z,13.70
2017-09-09T00:53:32.698Z,13.70
2017-09-09T00:56:02.951Z,13.70
2017-09-09T00:58:34.219Z,13.60
2017-09-09T01:01:05.614Z,13.50
2017-09-09T01:03:36.478Z,13.50
2017-09-09T01:06:09.598Z,13.60
2017-09-09T01:08:40.566Z,13.60
2017-09-09T01:11:11.746Z,13.40
2017-09-09T01:13:42.499Z,13.40
2017-09-09T01:16:13.028Z,13.50
2017-09-09T01:18:43.756Z,13.50
2017-09-09T01:21:14.646Z,13.50
2017-09-09T01:23:45.105Z,13.50
2017-09-09T01:26:15.645Z,13.50
2017-09-09T01:28:46.372Z,13.50
2017-09-09T01:31:16.683Z,13.50
2017-09-09T01:33:47.501Z,13.50
2017-09-09T01:38:46.037Z,13.50
2017-09-09T01:41:16.533Z,13.40
2017-09-09T01:43:46.974Z,13.50
2017-09-09T01:46:17.416Z,13.50
2017-09-09T01:48:47.831Z,13.40
2017-09-09T01:51:19.766Z,13.50
2017-09-09T01:53:50.691Z,13.50
2017-09-09T01:56:21.304Z,13.50
2017-09-09T01:58:51.759Z,13.40
2017-09-09T02:01:22.223Z,13.40
2017-09-09T02:03:52.753Z,13.40
2017-09-09T02:06:22.945Z,13.50
2017-09-09T02:08:54.317Z,13.50
2017-09-09T02:11:25.164Z,13.50
2017-09-09T02:13:55.831Z,13.50
2017-09-09T02:16:25.984Z,13.60
2017-09-09T02:18:57.926Z,13.70
2017-09-09T02:21:29.101Z,13.70
2017-09-09T02:23:59.742Z,13.70
2017-09-09T02:26:30.576Z,13.70
2017-09-09T02:29:01.212Z,13.80
2017-09-09T02:31:31.721Z,13.80
2017-09-09T02:34:02.923Z,13.70
2017-09-09T02:36:33.514Z,13.70
2017-09-09T02:39:04.490Z,13.80
2017-09-09T02:41:35.190Z,13.70
2017-09-09T02:44:05.645Z,13.70
2017-09-09T02:46:36.263Z,13.80
2017-09-09T02:49:06.798Z,13.80
2017-09-09T02:51:37.666Z,13.80
2017-09-09T02:54:08.057Z,13.80
2017-09-09T02:56:38.834Z,13.70
2017-09-09T02:59:09.215Z,13.70
2017-09-09T03:01:39.812Z,13.80
2017-09-09T03:04:10.306Z,13.90
2017-09-09T03:06:40.897Z,13.90
2017-09-09T03:09:11.318Z,13.90
2017-09-09T03:11:42.786Z,14.00
2017-09-09T03:14:13.254Z,14.00
2017-09-09T03:16:43.436Z,14.00
2017-09-09T03:19:14.301Z,13.90
2017-09-09T03:21:45.601Z,14.10
2017-09-09T03:24:16.882Z,14.00
2017-09-09T03:26:47.489Z,14.00
2017-09-09T03:29:18.069Z,14.00
2017-09-09T03:31:48.650Z,13.90
2017-09-09T03:34:19.183Z,13.80
2017-09-09T03:36:50.338Z,13.90
2017-09-09T03:39:20.893Z,13.90
2017-09-09T03:41:51.587Z,13.90
2017-09-09T03:44:22.338Z,13.80
2017-09-09T03:46:52.686Z,13.80
2017-09-09T03:49:23.770Z,13.80
2017-09-09T03:51:55.439Z,13.80
2017-09-09T03:54:26.603Z,13.70
2017-09-09T03:56:57.009Z,13.70
2017-09-09T03:59:27.558Z,13.80
2017-09-09T04:01:57.692Z,13.70
2017-09-09T04:04:28.228Z,13.70
2017-09-09T04:06:59.414Z,13.70
2017-09-09T04:09:31.116Z,13.60
2017-09-09T04:12:01.658Z,13.60
2017-09-09T04:14:32.032Z,13.60
2017-09-09T04:17:03.453Z,13.50
2017-09-09T04:19:33.941Z,13.50
2017-09-09T04:22:05.799Z,13.40
2017-09-09T04:24:36.149Z,13.40
2017-09-09T04:27:06.662Z,13.30
2017-09-09T04:29:37.608Z,13.30
2017-09-09T04:32:08.297Z,13.30
2017-09-09T04:34:38.888Z,13.30
2017-09-09T04:37:09.280Z,13.30
2017-09-09T04:39:40.786Z,13.30
2017-09-09T04:42:11.683Z,13.30
2017-09-09T04:44:42.330Z,13.40
2017-09-09T04:47:12.956Z,13.50
2017-09-09T04:49:43.833Z,13.50
2017-09-09T04:52:14.015Z,13.50
2017-09-09T04:54:44.252Z,13.40
2017-09-09T04:57:14.841Z,13.30
2017-09-09T04:59:46.417Z,13.30
2017-09-09T05:02:17.621Z,13.30
2017-09-09T05:04:48.111Z,13.30
2017-09-09T05:07:18.833Z,13.20
2017-09-09T05:09:49.506Z,13.30
2017-09-09T05:12:20.283Z,13.40
2017-09-09T05:14:51.171Z,13.30
2017-09-09T05:17:44.622Z,13.40
2017-09-09T05:20:23.918Z,13.40
2017-09-09T05:22:54.567Z,13.50
2017-09-09T05:25:25.222Z,13.40
2017-09-09T05:27:59.936Z,13.30
2017-09-09T05:30:34.674Z,13.20
2017-09-09T05:33:09.332Z,13.20
2017-09-09T05:35:40.158Z,13.20
2017-09-09T05:38:10.759Z,13.30
2017-09-09T05:40:41.734Z,13.40
2017-09-09T05:43:13.418Z,13.30
2017-09-09T05:45:45.034Z,13.50
2017-09-09T05:48:15.735Z,13.40
2017-09-09T05:50:46.390Z,13.30
2017-09-09T05:53:16.929Z,13.30
2017-09-09T05:55:47.445Z,13.30
2017-09-09T05:58:17.805Z,13.20
2017-09-09T06:00:49.263Z,13.10
2017-09-09T06:03:19.862Z,13.10
2017-09-09T06:05:50.900Z,13.30
2017-09-09T06:08:21.408Z,13.30
2017-09-09T06:10:51.760Z,13.40
2017-09-09T06:13:22.236Z,13.30
2017-09-09T06:15:52.530Z,13.40
2017-09-09T06:18:23.178Z,13.50
2017-09-09T06:20:54.180Z,13.30
2017-09-09T06:25:48.268Z,13.10
2017-09-09T06:28:18.659Z,13.10
2017-09-09T06:30:50.479Z,13.10
2017-09-09T06:33:22.049Z,13.10
2017-09-09T06:35:52.922Z,13.10
2017-09-09T06:38:24.459Z,13.20
2017-09-09T06:40:55.846Z,13.20
2017-09-09T06:43:26.797Z,13.20
2017-09-09T06:45:57.828Z,13.10
2017-09-09T06:48:28.914Z,13.20
2017-09-09T06:50:59.947Z,13.10
2017-09-09T06:53:30.188Z,13.10
2017-09-09T06:56:01.747Z,13.20
2017-09-09T06:58:32.302Z,13.20
2017-09-09T07:01:03.108Z,13.10
2017-09-09T07:03:36.720Z,13.10
2017-09-09T07:06:08.434Z,13.10
2017-09-09T07:08:40.455Z,13.10
2017-09-09T07:11:11.121Z,13.10
2017-09-09T07:13:44.538Z,13.20
2017-09-09T07:16:15.079Z,13.30
2017-09-09T07:18:45.737Z,13.30
2017-09-09T07:21:17.163Z,13.30
2017-09-09T07:23:47.557Z,13.20
2017-09-09T07:26:18.683Z,13.20
2017-09-09T07:28:49.945Z,13.30
2017-09-09T07:31:20.868Z,13.20
2017-09-09T07:33:53.365Z,13.20
2017-09-09T07:36:24.543Z,13.20
2017-09-09T07:38:54.923Z,13.30
2017-09-09T07:41:25.661Z,13.40
2017-09-09T07:43:56.497Z,13.40
2017-09-09T07:46:26.898Z,13.60
2017-09-09T07:48:59.015Z,13.50
2017-09-09T07:51:30.301Z,13.50
2017-09-09T07:54:00.663Z,13.50
2017-09-09T07:56:31.678Z,13.50
2017-09-09T07:59:03.125Z,13.40
2017-09-09T08:01:34.619Z,13.40
2017-09-09T08:04:05.507Z,13.40
2017-09-09T08:06:37.153Z,13.30
2017-09-09T08:09:08.094Z,13.30
2017-09-09T08:11:39.332Z,13.40
2017-09-09T08:14:10.218Z,13.40
2017-09-09T08:16:41.006Z,13.40
2017-09-09T08:19:11.665Z,13.50
2017-09-09T08:21:43.111Z,13.50
2017-09-09T08:24:14.188Z,13.50
2017-09-09T08:26:44.810Z,13.60
2017-09-09T08:29:16.550Z,13.60
2017-09-09T08:31:47.735Z,13.90
2017-09-09T08:34:18.296Z,13.90
2017-09-09T08:36:48.991Z,13.90
2017-09-09T08:39:19.352Z,14.00
2017-09-09T08:41:51.093Z,14.00
2017-09-09T08:44:22.005Z,14.00
2017-09-09T08:46:55.070Z,13.90
2017-09-09T08:49:25.958Z,13.80
2017-09-09T08:51:56.550Z,13.80
2017-09-09T08:54:27.137Z,14.00
2017-09-09T08:56:57.851Z,14.00
2017-09-09T08:59:28.847Z,14.10
2017-09-09T09:02:00.686Z,14.30
2017-09-09T09:04:31.396Z,14.30
2017-09-09T09:07:03.881Z,14.40
2017-09-09T09:09:34.379Z,14.50
2017-09-09T09:12:04.676Z,14.70
2017-09-09T09:14:36.365Z,14.90
2017-09-09T09:17:06.788Z,14.80
2017-09-09T09:19:37.471Z,14.90
2017-09-09T09:22:08.241Z,15.10
2017-09-09T09:24:38.653Z,15.20
2017-09-09T09:27:09.743Z,15.10
2017-09-09T09:29:40.754Z,15.10
2017-09-09T09:32:11.895Z,15.10
2017-09-09T09:34:42.206Z,15.10
2017-09-09T09:37:13.481Z,15.10
2017-09-09T09:39:44.714Z,15.10
2017-09-09T09:42:15.514Z,14.90
2017-09-09T09:44:46.251Z,15.00
2017-09-09T09:47:17.303Z,15.00
2017-09-09T09:49:47.681Z,15.00
2017-09-09T09:52:18.047Z,15.20
2017-09-09T09:54:48.303Z,15.30
2017-09-09T09:57:18.717Z,15.30
2017-09-09T09:59:49.671Z,15.30
2017-09-09T10:02:20.268Z,15.20
2017-09-09T10:04:51.927Z,15.20
2017-09-09T10:07:22.385Z,14.90
2017-09-09T10:09:52.805Z,14.80
2017-09-09T10:12:23.374Z,14.70
2017-09-09T10:14:54.174Z,14.60
2017-09-09T10:17:25.456Z,14.70
2017-09-09T10:19:56.407Z,14.70
2017-09-09T10:22:27.260Z,15.20
2017-09-09T10:24:58.446Z,15.80
2017-09-09T10:27:28.999Z,16.20
2017-09-09T10:30:00.094Z,16.70
2017-09-09T10:32:31.820Z,16.50
2017-09-09T10:35:02.290Z,16.80
2017-09-09T10:37:32.809Z,16.80
2017-09-09T10:40:04.100Z,16.20
2017-09-09T10:42:35.125Z,16.20
2017-09-09T10:45:05.828Z,16.00
2017-09-09T10:47:36.299Z,16.10
2017-09-09T10:50:06.742Z,16.00
2017-09-09T10:52:37.115Z,16.00
2017-09-09T10:55:07.569Z,16.00
2017-09-09T10:57:38.943Z,15.60
2017-09-09T11:00:09.639Z,15.60
2017-09-09T11:02:40.224Z,15.30
2017-09-09T11:05:11.052Z,15.10
2017-09-09T11:07:41.353Z,15.20
2017-09-09T11:10:11.642Z,15.80
2017-09-09T11:12:42.181Z,16.50
2017-09-09T11:15:12.463Z,16.80
2017-09-09T11:17:42.896Z,17.20
2017-09-09T11:20:13.461Z,17.80
2017-09-09T11:22:44.092Z,17.50
2017-09-09T11:25:14.402Z,17.50
2017-09-09T11:27:45.040Z,16.90
2017-09-09T11:30:15.950Z,16.60
2017-09-09T11:32:46.170Z,16.50
2017-09-09T11:35:16.445Z,16.60
2017-09-09T11:37:46.776Z,16.10
2017-09-09T11:40:18.411Z,16.40
2017-09-09T11:42:48.805Z,16.40
2017-09-09T11:45:19.533Z,16.50
2017-09-09T11:47:50.121Z,16.60
2017-09-09T11:50:21.150Z,16.80
2017-09-09T11:52:51.367Z,16.70
2017-09-09T11:55:22.586Z,17.20
2017-09-09T11:57:52.982Z,17.50
2017-09-09T12:00:24.075Z,17.80
2017-09-09T12:02:54.462Z,17.70
2017-09-09T12:05:24.914Z,17.60
2017-09-09T12:07:56.852Z,17.30
2017-09-09T12:10:27.518Z,17.10
2017-09-09T12:12:58.599Z,16.80
2017-09-09T12:15:29.960Z,16.90
2017-09-09T12:18:00.233Z,16.90
2017-09-09T12:20:30.643Z,17.10
2017-09-09T12:23:01.782Z,17.00
2017-09-09T12:25:32.743Z,17.00
2017-09-09T12:28:03.307Z,16.90
2017-09-09T12:30:34.477Z,16.90
2017-09-09T12:33:05.152Z,16.80
2017-09-09T12:35:35.682Z,17.10
2017-09-09T12:38:06.304Z,17.80
2017-09-09T12:40:37.782Z,18.20
2017-09-09T12:43:08.744Z,18.10
2017-09-09T12:45:40.261Z,17.40
2017-09-09T12:48:10.622Z,17.40
2017-09-09T12:50:40.849Z,17.40
2017-09-09T12:53:11.206Z,17.40
2017-09-09T12:55:41.900Z,17.20
2017-09-09T12:58:12.174Z,17.60
2017-09-09T13:00:42.781Z,18.20
2017-09-09T13:03:13.128Z,18.60
2017-09-09T13:05:43.747Z,18.60
2017-09-09T13:08:14.295Z,18.80
2017-09-09T13:10:44.801Z,19.00
2017-09-09T13:13:16.030Z,19.10
2017-09-09T13:15:47.392Z,19.50
2017-09-09T13:18:17.887Z,19.50
2017-09-09T13:20:48.217Z,19.80
2017-09-09T13:23:18.918Z,20.10
2017-09-09T13:25:58.328Z,19.80
2017-09-09T13:28:30.058Z,19.60
2017-09-09T13:31:01.900Z,19.80
2017-09-09T13:33:32.859Z,19.80
2017-09-09T13:36:03.414Z,20.00
2017-09-09T13:38:33.646Z,19.50
2017-09-09T13:41:04.038Z,19.40
2017-09-09T13:43:34.378Z,19.30
2017-09-09T13:46:05.049Z,18.90
2017-09-09T13:48:35.682Z,18.80
2017-09-09T13:51:05.932Z,18.90
2017-09-09T13:53:36.700Z,18.80
2017-09-09T13:56:07.076Z,18.60
2017-09-09T13:58:38.403Z,17.90
2017-09-09T14:01:08.772Z,17.90
2017-09-09T14:03:39.508Z,18.00
2017-09-09T14:06:10.235Z,17.90
2017-09-09T14:08:40.529Z,17.90
2017-09-09T14:11:10.758Z,17.90
2017-09-09T14:13:41.447Z,17.90
2017-09-09T14:16:11.898Z,17.50
2017-09-09T14:18:42.250Z,17.60
2017-09-09T14:21:13.053Z,17.20
2017-09-09T14:23:43.517Z,17.00
2017-09-09T14:26:13.807Z,16.90
2017-09-09T14:28:44.357Z,16.70
2017-09-09T14:31:14.992Z,16.70
2017-09-09T14:33:45.295Z,16.80
2017-09-09T14:36:15.672Z,16.50
2017-09-09T14:38:46.528Z,16.30
2017-09-09T14:41:17.877Z,16.20
2017-09-09T14:43:48.526Z,16.20
2017-09-09T14:46:20.694Z,16.10
2017-09-09T14:48:52.013Z,16.00
2017-09-09T14:51:22.309Z,16.00
2017-09-09T14:53:52.590Z,16.20
2017-09-09T14:56:23.343Z,16.30
2017-09-09T14:58:53.601Z,16.10
2017-09-09T15:01:24.320Z,16.30
2017-09-09T15:03:54.729Z,16.40
2017-09-09T15:06:25.451Z,16.30
2017-09-09T15:08:56.463Z,16.50
2017-09-09T15:11:26.831Z,16.70
2017-09-09T15:13:57.227Z,16.60
2017-09-09T15:16:27.907Z,16.70
2017-09-09T15:18:58.254Z,16.70
2017-09-09T15:21:28.996Z,16.50
2017-09-09T15:23:59.364Z,16.40
2017-09-09T15:26:29.738Z,16.40
2017-09-09T15:28:59.934Z,16.20
2017-09-09T15:31:30.425Z,16.40
2017-09-09T15:34:01.217Z,16.40
2017-09-09T15:36:32.176Z,16.50
2017-09-09T15:39:03.010Z,16.40
2017-09-09T15:41:34.107Z,16.50
2017-09-09T15:44:04.651Z,16.50
2017-09-09T15:46:35.176Z,16.50
2017-09-09T15:49:05.971Z,16.70
2017-09-09T15:51:36.458Z,16.70
2017-09-09T15:54:06.707Z,16.80
2017-09-09T15:56:37.428Z,16.80
2017-09-09T15:59:07.815Z,16.90
2017-09-09T16:01:39.056Z,16.90
2017-09-09T16:04:10.062Z,16.80
2017-09-09T16:06:40.629Z,16.70
2017-09-09T16:09:11.102Z,16.70
2017-09-09T16:11:41.584Z,17.00
2017-09-09T16:14:12.094Z,16.90
2017-09-09T16:16:42.394Z,17.00
2017-09-09T16:19:12.914Z,16.80
2017-09-09T16:21:43.155Z,16.90
2017-09-09T16:24:14.174Z,16.70
2017-09-09T16:26:44.610Z,16.70
2017-09-09T16:29:15.268Z,16.70
2017-09-09T16:31:46.414Z,16.60
2017-09-09T16:34:16.719Z,16.60
2017-09-09T16:37:13.701Z,16.60
2017-09-09T16:39:44.207Z,16.40
2017-09-09T16:42:19.509Z,16.30
2017-09-09T16:44:51.302Z,16.30
2017-09-09T16:47:22.584Z,16.40
2017-09-09T16:49:53.612Z,16.40
2017-09-09T16:52:24.805Z,16.10
2017-09-09T16:54:55.205Z,16.10
2017-09-09T16:57:25.727Z,16.10
2017-09-09T16:59:56.310Z,16.00
2017-09-09T17:02:26.759Z,15.90
2017-09-09T17:04:57.903Z,15.80
2017-09-09T17:07:28.991Z,15.60
2017-09-09T17:09:59.363Z,15.50
2017-09-09T17:12:29.900Z,15.50
2017-09-09T17:15:01.409Z,15.30
2017-09-09T17:19:39.186Z,15.20
2017-09-09T17:22:09.605Z,15.20
2017-09-09T17:24:40.277Z,15.20
2017-09-09T17:27:10.717Z,15.10
2017-09-09T17:29:41.059Z,15.00
2017-09-09T17:32:11.833Z,14.90
2017-09-09T17:34:42.197Z,14.90
2017-09-09T17:37:12.666Z,14.90
2017-09-09T17:39:43.014Z,15.00
2017-09-09T17:42:13.298Z,15.10
2017-09-09T17:44:43.820Z,15.10
2017-09-09T17:47:14.280Z,15.20
2017-09-09T17:49:44.844Z,15.20
2017-09-09T17:52:16.127Z,15.40
2017-09-09T17:54:46.354Z,15.40
2017-09-09T17:57:16.925Z,15.40
2017-09-09T17:59:47.295Z,15.40
2017-09-09T18:02:17.698Z,15.30
2017-09-09T18:04:48.889Z,15.20
2017-09-09T18:07:19.746Z,15.20
2017-09-09T18:09:50.088Z,15.20
2017-09-09T18:12:21.043Z,15.30
2017-09-09T18:14:52.145Z,15.30
2017-09-09T18:17:22.684Z,15.30
2017-09-09T18:19:53.155Z,15.20
2017-09-09T18:22:24.501Z,15.30
2017-09-09T18:24:55.654Z,15.30
2017-09-09T18:27:26.177Z,15.30
2017-09-09T18:29:56.706Z,15.30
2017-09-09T18:32:28.249Z,15.40
2017-09-09T18:34:58.711Z,15.30
2017-09-09T18:37:29.157Z,15.30
2017-09-09T18:39:59.665Z,15.30
2017-09-09T18:42:30.249Z,15.30
2017-09-09T18:45:00.722Z,15.30
2017-09-09T18:47:32.392Z,15.20
2017-09-09T18:50:02.749Z,14.80
2017-09-09T18:52:44.889Z,14.70
2017-09-09T18:55:18.569Z,14.60
2017-09-09T18:57:48.843Z,14.60
2017-09-09T19:00:23.373Z,14.50
2017-09-09T19:02:53.881Z,14.50
2017-09-09T19:05:24.155Z,14.60
2017-09-09T19:07:55.037Z,14.70
2017-09-09T19:10:25.456Z,14.80
2017-09-09T19:12:55.905Z,14.80
2017-09-09T19:15:26.673Z,14.80
2017-09-09T19:17:57.338Z,14.70
2017-09-09T19:20:27.953Z,14.70
2017-09-09T19:22:58.571Z,14.80
2017-09-09T19:25:29.790Z,14.60
2017-09-09T19:28:00.243Z,14.60
2017-09-09T19:30:31.262Z,14.60
2017-09-09T19:33:01.922Z,14.60
2017-09-09T19:35:32.235Z,14.60
2017-09-09T19:38:04.051Z,14.50
2017-09-09T19:40:34.543Z,14.50
2017-09-09T19:43:05.036Z,14.50
2017-09-09T19:45:35.674Z,14.40
2017-09-09T19:48:06.496Z,14.40
2017-09-09T19:50:36.909Z,14.30
2017-09-09T19:53:07.185Z,14.30
2017-09-09T19:55:37.469Z,14.20
2017-09-09T19:58:07.857Z,14.20
2017-09-09T20:00:39.449Z,14.10
2017-09-09T20:03:10.119Z,14.10
2017-09-09T20:05:40.452Z,14.00
2017-09-09T20:08:11.518Z,14.00
2017-09-09T20:10:42.550Z,14.00
2017-09-09T20:13:12.918Z,13.90
2017-09-09T20:15:44.590Z,13.90
2017-09-09T20:18:15.204Z,13.90
2017-09-09T20:20:45.602Z,13.80
2017-09-09T20:23:16.862Z,13.80
2017-09-09T20:25:49.198Z,13.80
2017-09-09T20:28:19.440Z,13.80
2017-09-09T20:30:49.808Z,13.70
2017-09-09T20:33:20.184Z,13.70
2017-09-09T20:35:50.546Z,13.70
2017-09-09T20:38:20.768Z,13.60
2017-09-09T20:40:51.439Z,13.60
2017-09-09T20:43:21.766Z,13.60
2017-09-09T20:45:52.196Z,13.60
2017-09-09T20:48:22.445Z,13.60
2017-09-09T20:50:52.783Z,13.60
2017-09-09T20:53:23.268Z,13.50
2017-09-09T20:55:54.092Z,13.50
2017-09-09T20:58:24.525Z,13.40
2017-09-09T21:00:54.878Z,13.40
2017-09-09T21:03:25.294Z,13.30
2017-09-09T21:05:55.585Z,13.30
2017-09-09T21:08:26.267Z,13.30
2017-09-09T21:10:58.994Z,13.30
2017-09-09T21:13:29.344Z,13.20
2017-09-09T21:18:38.636Z,13.10
2017-09-09T21:21:09.192Z,13.10
2017-09-09T21:23:39.903Z,13.10
2017-09-09T21:26:10.290Z,13.10
2017-09-09T21:28:40.922Z,13.00
2017-09-09T21:31:11.795Z,13.00
2017-09-09T21:33:42.493Z,13.00
2017-09-09T21:36:12.948Z,13.00
2017-09-09T21:38:43.442Z,12.90
2017-09-09T21:41:14.178Z,12.90
2017-09-09T21:43:45.114Z,12.90
2017-09-09T21:46:16.498Z,12.90
2017-09-09T21:48:47.339Z,12.80
2017-09-09T21:51:17.751Z,12.80
2017-09-09T21:53:48.366Z,12.80
2017-09-09T21:56:19.041Z,12.80
2017-09-09T21:58:49.985Z,12.70
2017-09-09T22:01:20.827Z,12.70
2017-09-09T22:03:51.102Z,12.60
2017-09-09T22:06:21.517Z,12.60
2017-09-09T22:08:52.889Z,12.60
2017-09-09T22:11:23.841Z,12.60
2017-09-09T22:13:54.451Z,12.50
2017-09-09T22:16:25.184Z,12.50
2017-09-09T22:18:55.944Z,12.50
2017-09-09T22:21:26.344Z,12.50
2017-09-09T22:23:56.758Z,12.40
2017-09-09T22:26:27.023Z,12.30
2017-09-09T22:28:58.931Z,12.10
2017-09-09T22:31:29.229Z,12.10
2017-09-09T22:34:00.131Z,12.00
2017-09-09T22:36:30.902Z,12.00
2017-09-09T22:39:01.599Z,12.10
2017-09-09T22:41:32.639Z,12.10
2017-09-09T22:44:03.227Z,12.10
2017-09-09T22:46:33.702Z,12.10
2017-09-09T22:49:04.093Z,12.20
2017-09-09T22:51:35.790Z,12.10
2017-09-09T22:54:07.120Z,12.10
2017-09-09T22:56:37.877Z,12.10
2017-09-09T22:59:09.836Z,12.10
2017-09-09T23:01:40.143Z,12.10
2017-09-09T23:04:10.799Z,12.10
2017-09-09T23:06:41.338Z,12.10
2017-09-09T23:09:12.573Z,12.10
2017-09-09T23:11:44.354Z,12.10
2017-09-09T23:14:15.666Z,12.00
2017-09-09T23:16:48.600Z,12.00
2017-09-09T23:19:19.782Z,12.00
2017-09-09T23:21:51.543Z,12.00
2017-09-09T23:24:23.254Z,12.00
2017-09-09T23:26:54.043Z,11.90
2017-09-09T23:29:24.932Z,11.90
2017-09-09T23:31:55.412Z,11.90
2017-09-09T23:34:25.902Z,11.90
2017-09-09T23:36:57.166Z,11.90
2017-09-09T23:39:28.101Z,11.90
2017-09-09T23:41:58.415Z,11.80
2017-09-09T23:44:30.002Z,11.80
2017-09-09T23:47:00.961Z,11.70
2017-09-09T23:49:33.051Z,11.70
2017-09-09T23:52:03.607Z,11.70
2017-09-09T23:54:33.975Z,11.70
2017-09-09T23:57:05.474Z,11.70
2017-09-09T23:59:36.966Z,11.60
